sensor_id;sensor_type;location;lat;lon;timestamp;temperature;humidity
52849;DHT22;38714;53.180;5.812;2023-04-02T00:02:55;5.10;99.90
52849;DHT22;38714;53.180;5.812;2023-04-02T00:08:04;5.00;99.90
52849;DHT22;38714;53.180;5.812;2023-04-02T00:15:35;4.90;99.90
52849;DHT22;38714;53.180;5.812;2023-04-02T00:18:02;4.80;99.90
52849;DHT22;38714;53.180;5.812;2023-04-02T00:20:31;4.80;99.90
52849;DHT22;38714;53.180;5.812;2023-04-02T00:22:57;4.80;99.90
52849;DHT22;38714;53.180;5.812;2023-04-02T00:25:26;4.70;99.90
52849;DHT22;38714;53.180;5.812;2023-04-02T00:27:53;4.70;99.90
52849;DHT22;38714;53.180;5.812;2023-04-02T00:30:20;4.70;99.90
52849;DHT22;38714;53.180;5.812;2023-04-02T00:32:45;4.60;99.90
52849;DHT22;38714;53.180;5.812;2023-04-02T00:35:21;4.60;99.90
52849;DHT22;38714;53.180;5.812;2023-04-02T00:37:49;4.60;99.90
52849;DHT22;38714;53.180;5.812;2023-04-02T00:40:27;4.60;99.90
52849;DHT22;38714;53.180;5.812;2023-04-02T00:42:59;4.50;99.90
52849;DHT22;38714;53.180;5.812;2023-04-02T00:45:30;4.50;99.90
52849;DHT22;38714;53.180;5.812;2023-04-02T00:47:59;4.50;99.90
52849;DHT22;38714;53.180;5.812;2023-04-02T00:50:39;4.50;99.90
52849;DHT22;38714;53.180;5.812;2023-04-02T00:53:22;4.50;99.90
52849;DHT22;38714;53.180;5.812;2023-04-02T00:55:49;4.40;99.90
52849;DHT22;38714;53.180;5.812;2023-04-02T00:58:31;4.40;99.90
52849;DHT22;38714;53.180;5.812;2023-04-02T01:00:58;4.40;99.90
52849;DHT22;38714;53.180;5.812;2023-04-02T01:06:06;4.30;99.90
52849;DHT22;38714;53.180;5.812;2023-04-02T01:11:40;4.30;99.90
52849;DHT22;38714;53.180;5.812;2023-04-02T01:22:36;4.20;99.90
52849;DHT22;38714;53.180;5.812;2023-04-02T01:25:06;4.20;99.90
52849;DHT22;38714;53.180;5.812;2023-04-02T01:27:47;4.10;99.90
52849;DHT22;38714;53.180;5.812;2023-04-02T01:30:16;4.10;99.90
52849;DHT22;38714;53.180;5.812;2023-04-02T01:32:42;4.00;99.90
52849;DHT22;38714;53.180;5.812;2023-04-02T01:35:08;4.00;99.90
52849;DHT22;38714;53.180;5.812;2023-04-02T01:37:40;4.00;99.90
52849;DHT22;38714;53.180;5.812;2023-04-02T01:40:15;4.00;99.90
52849;DHT22;38714;53.180;5.812;2023-04-02T01:45:30;3.90;99.90
52849;DHT22;38714;53.180;5.812;2023-04-02T01:47:57;3.90;99.90
52849;DHT22;38714;53.180;5.812;2023-04-02T01:50:30;3.80;99.90
52849;DHT22;38714;53.180;5.812;2023-04-02T01:52:59;3.80;99.90
52849;DHT22;38714;53.180;5.812;2023-04-02T01:55:37;3.80;99.90
52849;DHT22;38714;53.180;5.812;2023-04-02T01:58:04;3.80;99.90
52849;DHT22;38714;53.180;5.812;2023-04-02T02:00:31;3.70;99.90
52849;DHT22;38714;53.180;5.812;2023-04-02T02:02:59;3.80;99.90
52849;DHT22;38714;53.180;5.812;2023-04-02T02:05:26;3.70;99.90
52849;DHT22;38714;53.180;5.812;2023-04-02T02:07:54;3.70;99.90
52849;DHT22;38714;53.180;5.812;2023-04-02T02:10:27;3.70;99.90
52849;DHT22;38714;53.180;5.812;2023-04-02T02:12:53;3.60;99.90
52849;DHT22;38714;53.180;5.812;2023-04-02T02:15:21;3.60;99.90
52849;DHT22;38714;53.180;5.812;2023-04-02T02:17:48;3.60;99.90
52849;DHT22;38714;53.180;5.812;2023-04-02T02:20:15;3.60;99.90
52849;DHT22;38714;53.180;5.812;2023-04-02T02:22:46;3.60;99.90
52849;DHT22;38714;53.180;5.812;2023-04-02T02:25:21;3.50;99.90
52849;DHT22;38714;53.180;5.812;2023-04-02T02:28:14;3.50;99.90
52849;DHT22;38714;53.180;5.812;2023-04-02T02:30:58;3.50;99.90
52849;DHT22;38714;53.180;5.812;2023-04-02T02:33:29;3.50;99.90
52849;DHT22;38714;53.180;5.812;2023-04-02T02:36:03;3.50;99.90
52849;DHT22;38714;53.180;5.812;2023-04-02T02:41:05;3.40;99.90
52849;DHT22;38714;53.180;5.812;2023-04-02T02:43:32;3.40;99.90
52849;DHT22;38714;53.180;5.812;2023-04-02T02:46:00;3.40;99.90
52849;DHT22;38714;53.180;5.812;2023-04-02T02:48:35;3.30;99.90
52849;DHT22;38714;53.180;5.812;2023-04-02T02:51:08;3.30;99.90
52849;DHT22;38714;53.180;5.812;2023-04-02T02:53:45;3.30;99.90
52849;DHT22;38714;53.180;5.812;2023-04-02T02:56:13;3.30;99.90
52849;DHT22;38714;53.180;5.812;2023-04-02T02:58:39;3.20;99.90
52849;DHT22;38714;53.180;5.812;2023-04-02T03:01:05;3.20;99.90
52849;DHT22;38714;53.180;5.812;2023-04-02T03:03:32;3.20;99.90
52849;DHT22;38714;53.180;5.812;2023-04-02T03:06:09;3.20;99.90
52849;DHT22;38714;53.180;5.812;2023-04-02T03:08:51;3.20;99.90
52849;DHT22;38714;53.180;5.812;2023-04-02T03:13:52;3.10;99.90
52849;DHT22;38714;53.180;5.812;2023-04-02T03:16:22;3.10;99.90
52849;DHT22;38714;53.180;5.812;2023-04-02T03:21:38;3.00;99.90
52849;DHT22;38714;53.180;5.812;2023-04-02T03:24:28;3.00;99.90
52849;DHT22;38714;53.180;5.812;2023-04-02T03:27:12;3.00;99.90
52849;DHT22;38714;53.180;5.812;2023-04-02T03:29:46;3.00;99.90
52849;DHT22;38714;53.180;5.812;2023-04-02T03:32:21;2.90;99.90
52849;DHT22;38714;53.180;5.812;2023-04-02T03:35:00;2.90;99.90
52849;DHT22;38714;53.180;5.812;2023-04-02T03:37:33;2.90;99.90
52849;DHT22;38714;53.180;5.812;2023-04-02T03:40:14;2.90;99.90
52849;DHT22;38714;53.180;5.812;2023-04-02T03:45:15;2.90;99.90
52849;DHT22;38714;53.180;5.812;2023-04-02T03:50:46;2.80;99.90
52849;DHT22;38714;53.180;5.812;2023-04-02T03:53:14;2.80;99.90
52849;DHT22;38714;53.180;5.812;2023-04-02T03:55:40;2.80;99.90
52849;DHT22;38714;53.180;5.812;2023-04-02T03:58:20;2.80;99.90
52849;DHT22;38714;53.180;5.812;2023-04-02T04:00:53;2.80;99.90
52849;DHT22;38714;53.180;5.812;2023-04-02T04:06:04;2.80;99.90
52849;DHT22;38714;53.180;5.812;2023-04-02T04:08:35;2.70;99.90
52849;DHT22;38714;53.180;5.812;2023-04-02T04:11:11;2.80;99.90
52849;DHT22;38714;53.180;5.812;2023-04-02T04:14:01;2.70;99.90
52849;DHT22;38714;53.180;5.812;2023-04-02T04:16:38;2.70;99.90
52849;DHT22;38714;53.180;5.812;2023-04-02T04:19:13;2.70;99.90
52849;DHT22;38714;53.180;5.812;2023-04-02T04:21:42;2.70;99.90
52849;DHT22;38714;53.180;5.812;2023-04-02T04:24:23;2.70;99.90
52849;DHT22;38714;53.180;5.812;2023-04-02T04:26:56;2.60;99.90
52849;DHT22;38714;53.180;5.812;2023-04-02T04:32:24;2.60;99.90
52849;DHT22;38714;53.180;5.812;2023-04-02T04:34:58;2.60;99.90
52849;DHT22;38714;53.180;5.812;2023-04-02T04:37:35;2.60;99.90
52849;DHT22;38714;53.180;5.812;2023-04-02T04:40:19;2.60;99.90
52849;DHT22;38714;53.180;5.812;2023-04-02T04:42:48;2.60;99.90
52849;DHT22;38714;53.180;5.812;2023-04-02T04:45:47;2.60;99.90
52849;DHT22;38714;53.180;5.812;2023-04-02T04:48:19;2.60;99.90
52849;DHT22;38714;53.180;5.812;2023-04-02T04:53:22;2.60;99.90
52849;DHT22;38714;53.180;5.812;2023-04-02T04:55:51;2.60;99.90
52849;DHT22;38714;53.180;5.812;2023-04-02T04:58:32;2.50;99.90
52849;DHT22;38714;53.180;5.812;2023-04-02T05:03:36;2.50;99.90
52849;DHT22;38714;53.180;5.812;2023-04-02T05:06:23;2.50;99.90
52849;DHT22;38714;53.180;5.812;2023-04-02T05:08:51;2.50;99.90
52849;DHT22;38714;53.180;5.812;2023-04-02T05:11:35;2.50;99.90
52849;DHT22;38714;53.180;5.812;2023-04-02T05:14:11;2.50;99.90
52849;DHT22;38714;53.180;5.812;2023-04-02T05:19:44;2.50;99.90
52849;DHT22;38714;53.180;5.812;2023-04-02T05:24:53;2.50;99.90
52849;DHT22;38714;53.180;5.812;2023-04-02T05:27:30;2.50;99.90
52849;DHT22;38714;53.180;5.812;2023-04-02T05:32:53;2.50;99.90
52849;DHT22;38714;53.180;5.812;2023-04-02T05:35:27;2.50;99.90
52849;DHT22;38714;53.180;5.812;2023-04-02T05:37:54;2.50;99.90
52849;DHT22;38714;53.180;5.812;2023-04-02T05:40:28;2.50;99.90
52849;DHT22;38714;53.180;5.812;2023-04-02T05:42:56;2.50;99.90
52849;DHT22;38714;53.180;5.812;2023-04-02T05:45:29;2.50;99.90
52849;DHT22;38714;53.180;5.812;2023-04-02T05:47:58;2.50;99.90
52849;DHT22;38714;53.180;5.812;2023-04-02T05:50:32;2.50;99.90
52849;DHT22;38714;53.180;5.812;2023-04-02T05:53:16;2.60;99.90
52849;DHT22;38714;53.180;5.812;2023-04-02T05:56:00;2.60;99.90
52849;DHT22;38714;53.180;5.812;2023-04-02T05:58:59;2.60;99.90
52849;DHT22;38714;53.180;5.812;2023-04-02T06:03:59;2.60;99.90
52849;DHT22;38714;53.180;5.812;2023-04-02T06:06:45;2.70;99.90
52849;DHT22;38714;53.180;5.812;2023-04-02T06:09:16;2.70;99.90
52849;DHT22;38714;53.180;5.812;2023-04-02T06:11:48;2.70;99.90
52849;DHT22;38714;53.180;5.812;2023-04-02T06:14:16;2.70;99.90
52849;DHT22;38714;53.180;5.812;2023-04-02T06:16:43;2.70;99.90
52849;DHT22;38714;53.180;5.812;2023-04-02T06:19:18;2.70;99.90
52849;DHT22;38714;53.180;5.812;2023-04-02T06:21:46;2.80;99.90
52849;DHT22;38714;53.180;5.812;2023-04-02T06:24:17;2.80;99.90
52849;DHT22;38714;53.180;5.812;2023-04-02T06:26:51;2.80;99.90
52849;DHT22;38714;53.180;5.812;2023-04-02T06:29:36;2.90;99.90
52849;DHT22;38714;53.180;5.812;2023-04-02T06:32:06;2.90;99.90
52849;DHT22;38714;53.180;5.812;2023-04-02T06:34:35;2.90;99.90
52849;DHT22;38714;53.180;5.812;2023-04-02T06:37:25;2.90;99.90
52849;DHT22;38714;53.180;5.812;2023-04-02T06:39:52;3.00;99.90
52849;DHT22;38714;53.180;5.812;2023-04-02T06:42:22;3.00;99.90
52849;DHT22;38714;53.180;5.812;2023-04-02T06:44:49;3.00;99.90
52849;DHT22;38714;53.180;5.812;2023-04-02T06:52:55;3.10;99.90
52849;DHT22;38714;53.180;5.812;2023-04-02T06:58:32;3.20;99.90
52849;DHT22;38714;53.180;5.812;2023-04-02T07:00:58;3.20;99.90
52849;DHT22;38714;53.180;5.812;2023-04-02T07:03:29;3.20;99.90
52849;DHT22;38714;53.180;5.812;2023-04-02T07:05:56;3.20;99.90
52849;DHT22;38714;53.180;5.812;2023-04-02T07:08:23;3.30;99.90
52849;DHT22;38714;53.180;5.812;2023-04-02T07:10:49;3.30;99.90
52849;DHT22;38714;53.180;5.812;2023-04-02T07:13:16;3.40;99.90
52849;DHT22;38714;53.180;5.812;2023-04-02T07:15:47;3.40;99.90
52849;DHT22;38714;53.180;5.812;2023-04-02T07:18:29;3.40;99.90
52849;DHT22;38714;53.180;5.812;2023-04-02T07:20:56;3.50;99.90
52849;DHT22;38714;53.180;5.812;2023-04-02T07:23:21;3.50;99.90
52849;DHT22;38714;53.180;5.812;2023-04-02T07:25:52;3.60;99.90
52849;DHT22;38714;53.180;5.812;2023-04-02T07:28:18;3.60;99.90
52849;DHT22;38714;53.180;5.812;2023-04-02T07:30:44;3.60;99.90
52849;DHT22;38714;53.180;5.812;2023-04-02T07:33:15;3.70;99.90
52849;DHT22;38714;53.180;5.812;2023-04-02T07:35:41;3.70;99.90
52849;DHT22;38714;53.180;5.812;2023-04-02T07:38:07;3.80;99.90
52849;DHT22;38714;53.180;5.812;2023-04-02T07:40:33;3.80;99.90
52849;DHT22;38714;53.180;5.812;2023-04-02T07:42:59;3.80;99.90
52849;DHT22;38714;53.180;5.812;2023-04-02T07:45:25;3.90;99.90
52849;DHT22;38714;53.180;5.812;2023-04-02T07:47:51;3.90;99.90
52849;DHT22;38714;53.180;5.812;2023-04-02T07:50:16;3.90;99.90
52849;DHT22;38714;53.180;5.812;2023-04-02T07:52:42;3.90;99.90
52849;DHT22;38714;53.180;5.812;2023-04-02T07:55:12;4.00;99.90
52849;DHT22;38714;53.180;5.812;2023-04-02T07:57:50;4.00;99.90
52849;DHT22;38714;53.180;5.812;2023-04-02T08:00:16;4.00;99.90
52849;DHT22;38714;53.180;5.812;2023-04-02T08:02:45;4.00;99.90
52849;DHT22;38714;53.180;5.812;2023-04-02T08:05:11;4.00;99.90
52849;DHT22;38714;53.180;5.812;2023-04-02T08:07:37;4.10;99.90
52849;DHT22;38714;53.180;5.812;2023-04-02T08:10:04;4.20;99.90
52849;DHT22;38714;53.180;5.812;2023-04-02T08:12:29;4.20;99.90
52849;DHT22;38714;53.180;5.812;2023-04-02T08:14:55;4.30;99.90
52849;DHT22;38714;53.180;5.812;2023-04-02T08:17:21;4.30;99.90
52849;DHT22;38714;53.180;5.812;2023-04-02T08:19:46;4.30;99.90
52849;DHT22;38714;53.180;5.812;2023-04-02T08:22:13;4.30;99.90
52849;DHT22;38714;53.180;5.812;2023-04-02T08:24:38;4.40;99.90
52849;DHT22;38714;53.180;5.812;2023-04-02T08:27:04;4.30;99.90
52849;DHT22;38714;53.180;5.812;2023-04-02T08:29:32;4.30;99.90
52849;DHT22;38714;53.180;5.812;2023-04-02T08:31:58;4.30;99.90
52849;DHT22;38714;53.180;5.812;2023-04-02T08:34:24;4.30;99.90
52849;DHT22;38714;53.180;5.812;2023-04-02T08:36:50;4.40;99.90
52849;DHT22;38714;53.180;5.812;2023-04-02T08:39:16;4.40;99.90
52849;DHT22;38714;53.180;5.812;2023-04-02T08:42:01;4.40;99.90
52849;DHT22;38714;53.180;5.812;2023-04-02T08:44:46;4.40;99.90
52849;DHT22;38714;53.180;5.812;2023-04-02T08:47:18;4.50;99.90
52849;DHT22;38714;53.180;5.812;2023-04-02T08:49:49;4.50;99.90
52849;DHT22;38714;53.180;5.812;2023-04-02T08:52:21;4.60;99.90
52849;DHT22;38714;53.180;5.812;2023-04-02T08:54:47;4.60;99.90
52849;DHT22;38714;53.180;5.812;2023-04-02T09:00:04;4.70;99.90
52849;DHT22;38714;53.180;5.812;2023-04-02T09:02:40;4.70;99.90
52849;DHT22;38714;53.180;5.812;2023-04-02T09:05:20;4.80;99.90
52849;DHT22;38714;53.180;5.812;2023-04-02T09:07:48;4.80;99.90
52849;DHT22;38714;53.180;5.812;2023-04-02T09:10:16;4.90;99.90
52849;DHT22;38714;53.180;5.812;2023-04-02T09:12:45;4.90;99.90
52849;DHT22;38714;53.180;5.812;2023-04-02T09:17:39;4.90;99.90
52849;DHT22;38714;53.180;5.812;2023-04-02T09:20:24;5.00;99.90
52849;DHT22;38714;53.180;5.812;2023-04-02T09:22:51;5.00;99.90
52849;DHT22;38714;53.180;5.812;2023-04-02T09:25:29;5.10;99.90
52849;DHT22;38714;53.180;5.812;2023-04-02T09:28:03;5.10;99.90
52849;DHT22;38714;53.180;5.812;2023-04-02T09:33:45;5.20;99.90
52849;DHT22;38714;53.180;5.812;2023-04-02T09:36:37;5.30;99.90
52849;DHT22;38714;53.180;5.812;2023-04-02T09:39:20;5.30;99.90
52849;DHT22;38714;53.180;5.812;2023-04-02T09:41:47;5.30;99.90
52849;DHT22;38714;53.180;5.812;2023-04-02T09:44:23;5.40;99.90
52849;DHT22;38714;53.180;5.812;2023-04-02T09:47:03;5.40;99.90
52849;DHT22;38714;53.180;5.812;2023-04-02T09:49:37;5.50;99.90
52849;DHT22;38714;53.180;5.812;2023-04-02T09:52:25;5.50;99.90
52849;DHT22;38714;53.180;5.812;2023-04-02T09:57:38;5.60;99.90
52849;DHT22;38714;53.180;5.812;2023-04-02T10:02:44;5.60;99.90
52849;DHT22;38714;53.180;5.812;2023-04-02T10:05:23;5.60;99.90
52849;DHT22;38714;53.180;5.812;2023-04-02T10:07:50;5.70;99.90
52849;DHT22;38714;53.180;5.812;2023-04-02T10:10:34;5.70;99.90
52849;DHT22;38714;53.180;5.812;2023-04-02T10:13:05;5.70;99.90
52849;DHT22;38714;53.180;5.812;2023-04-02T10:20:56;5.90;99.90
52849;DHT22;38714;53.180;5.812;2023-04-02T10:23:26;5.90;99.90
52849;DHT22;38714;53.180;5.812;2023-04-02T10:26:06;5.90;99.90
52849;DHT22;38714;53.180;5.812;2023-04-02T10:29:02;6.00;99.90
52849;DHT22;38714;53.180;5.812;2023-04-02T10:34:56;6.00;99.90
52849;DHT22;38714;53.180;5.812;2023-04-02T10:40:16;6.10;99.90
52849;DHT22;38714;53.180;5.812;2023-04-02T10:45:36;6.20;99.90
52849;DHT22;38714;53.180;5.812;2023-04-02T10:48:24;6.20;99.90
52849;DHT22;38714;53.180;5.812;2023-04-02T10:51:23;6.30;99.90
52849;DHT22;38714;53.180;5.812;2023-04-02T10:56:24;6.30;99.90
52849;DHT22;38714;53.180;5.812;2023-04-02T10:59:13;6.30;99.90
52849;DHT22;38714;53.180;5.812;2023-04-02T11:01:40;6.30;99.90
52849;DHT22;38714;53.180;5.812;2023-04-02T11:04:16;6.30;99.90
52849;DHT22;38714;53.180;5.812;2023-04-02T11:06:48;6.30;99.90
52849;DHT22;38714;53.180;5.812;2023-04-02T11:09:22;6.40;99.90
52849;DHT22;38714;53.180;5.812;2023-04-02T11:11:52;6.40;99.90
52849;DHT22;38714;53.180;5.812;2023-04-02T11:14:25;6.40;99.90
52849;DHT22;38714;53.180;5.812;2023-04-02T11:16:52;6.50;99.90
52849;DHT22;38714;53.180;5.812;2023-04-02T11:21:59;6.50;99.90
52849;DHT22;38714;53.180;5.812;2023-04-02T11:27:19;6.60;99.90
52849;DHT22;38714;53.180;5.812;2023-04-02T11:30:00;6.60;99.90
52849;DHT22;38714;53.180;5.812;2023-04-02T11:32:35;6.60;99.90
52849;DHT22;38714;53.180;5.812;2023-04-02T11:37:50;6.60;99.90
52849;DHT22;38714;53.180;5.812;2023-04-02T11:42:44;6.70;99.90
52849;DHT22;38714;53.180;5.812;2023-04-02T11:53:01;6.80;99.90
52849;DHT22;38714;53.180;5.812;2023-04-02T11:55:31;6.90;99.90
52849;DHT22;38714;53.180;5.812;2023-04-02T12:03:36;6.90;99.90
52849;DHT22;38714;53.180;5.812;2023-04-02T12:09:27;6.90;99.90
52849;DHT22;38714;53.180;5.812;2023-04-02T12:11:59;6.90;99.90
52849;DHT22;38714;53.180;5.812;2023-04-02T12:17:20;7.00;99.90
52849;DHT22;38714;53.180;5.812;2023-04-02T12:19:51;7.00;99.90
52849;DHT22;38714;53.180;5.812;2023-04-02T12:22:23;7.00;99.90
52849;DHT22;38714;53.180;5.812;2023-04-02T12:24:49;7.10;99.90
52849;DHT22;38714;53.180;5.812;2023-04-02T12:27:20;7.00;99.90
52849;DHT22;38714;53.180;5.812;2023-04-02T12:29:58;7.10;99.90
52849;DHT22;38714;53.180;5.812;2023-04-02T12:32:34;7.10;99.90
52849;DHT22;38714;53.180;5.812;2023-04-02T12:35:01;7.10;99.90
52849;DHT22;38714;53.180;5.812;2023-04-02T12:37:29;7.10;99.90
52849;DHT22;38714;53.180;5.812;2023-04-02T12:40:01;7.20;99.90
52849;DHT22;38714;53.180;5.812;2023-04-02T12:42:33;7.20;99.90
52849;DHT22;38714;53.180;5.812;2023-04-02T12:45:00;7.20;99.90
52849;DHT22;38714;53.180;5.812;2023-04-02T12:47:27;7.20;99.90
52849;DHT22;38714;53.180;5.812;2023-04-02T12:49:54;7.20;99.90
52849;DHT22;38714;53.180;5.812;2023-04-02T12:52:22;7.20;99.90
52849;DHT22;38714;53.180;5.812;2023-04-02T12:54:55;7.20;99.90
52849;DHT22;38714;53.180;5.812;2023-04-02T13:00:01;7.30;99.90
52849;DHT22;38714;53.180;5.812;2023-04-02T13:02:40;7.30;99.90
52849;DHT22;38714;53.180;5.812;2023-04-02T13:05:08;7.30;99.90
52849;DHT22;38714;53.180;5.812;2023-04-02T13:07:33;7.30;99.90
52849;DHT22;38714;53.180;5.812;2023-04-02T13:10:22;7.30;99.90
52849;DHT22;38714;53.180;5.812;2023-04-02T13:12:54;7.30;99.90
52849;DHT22;38714;53.180;5.812;2023-04-02T13:15:27;7.30;99.90
52849;DHT22;38714;53.180;5.812;2023-04-02T13:25:56;7.40;99.90
52849;DHT22;38714;53.180;5.812;2023-04-02T13:28:23;7.40;99.90
52849;DHT22;38714;53.180;5.812;2023-04-02T13:30:48;7.40;99.90
52849;DHT22;38714;53.180;5.812;2023-04-02T13:33:14;7.40;99.90
52849;DHT22;38714;53.180;5.812;2023-04-02T13:35:41;7.40;99.90
52849;DHT22;38714;53.180;5.812;2023-04-02T13:38:07;7.40;99.90
52849;DHT22;38714;53.180;5.812;2023-04-02T13:40:33;7.40;99.90
52849;DHT22;38714;53.180;5.812;2023-04-02T13:43:00;7.40;99.90
52849;DHT22;38714;53.180;5.812;2023-04-02T13:45:30;7.40;99.90
52849;DHT22;38714;53.180;5.812;2023-04-02T13:47:56;7.40;99.90
52849;DHT22;38714;53.180;5.812;2023-04-02T13:50:26;7.40;99.90
52849;DHT22;38714;53.180;5.812;2023-04-02T13:52:53;7.40;99.90
52849;DHT22;38714;53.180;5.812;2023-04-02T13:55:23;7.40;99.90
52849;DHT22;38714;53.180;5.812;2023-04-02T13:57:50;7.40;99.90
52849;DHT22;38714;53.180;5.812;2023-04-02T14:00:16;7.40;99.90
52849;DHT22;38714;53.180;5.812;2023-04-02T14:02:50;7.50;99.90
52849;DHT22;38714;53.180;5.812;2023-04-02T14:13:48;7.40;99.90
52849;DHT22;38714;53.180;5.812;2023-04-02T14:22:40;7.50;99.90
52849;DHT22;38714;53.180;5.812;2023-04-02T14:28:21;7.50;99.90
52849;DHT22;38714;53.180;5.812;2023-04-02T14:36:24;7.50;99.90
52849;DHT22;38714;53.180;5.812;2023-04-02T14:39:41;7.50;99.90
52849;DHT22;38714;53.180;5.812;2023-04-02T14:42:00;7.60;99.90
52849;DHT22;38714;53.180;5.812;2023-04-02T14:44:35;7.60;99.90
52849;DHT22;38714;53.180;5.812;2023-04-02T14:47:20;7.60;99.90
52849;DHT22;38714;53.180;5.812;2023-04-02T14:49:53;7.60;99.90
52849;DHT22;38714;53.180;5.812;2023-04-02T14:52:22;7.50;99.90
52849;DHT22;38714;53.180;5.812;2023-04-02T14:55:05;7.60;99.90
52849;DHT22;38714;53.180;5.812;2023-04-02T14:57:44;7.60;99.90
52849;DHT22;38714;53.180;5.812;2023-04-02T15:08:12;7.60;99.90
52849;DHT22;38714;53.180;5.812;2023-04-02T15:11:07;7.60;99.90
52849;DHT22;38714;53.180;5.812;2023-04-02T15:16:20;7.70;99.90
52849;DHT22;38714;53.180;5.812;2023-04-02T15:18:51;7.70;99.90
52849;DHT22;38714;53.180;5.812;2023-04-02T15:32:29;7.70;99.90
52849;DHT22;38714;53.180;5.812;2023-04-02T15:43:19;7.60;99.90
52849;DHT22;38714;53.180;5.812;2023-04-02T15:49:04;7.50;99.90
52849;DHT22;38714;53.180;5.812;2023-04-02T15:52:04;7.50;99.90
52849;DHT22;38714;53.180;5.812;2023-04-02T16:03:15;7.50;99.90
52849;DHT22;38714;53.180;5.812;2023-04-02T16:11:33;7.60;99.90
52849;DHT22;38714;53.180;5.812;2023-04-02T16:16:45;7.60;99.90
52849;DHT22;38714;53.180;5.812;2023-04-02T16:24:41;7.60;99.90
52849;DHT22;38714;53.180;5.812;2023-04-02T16:37:59;7.60;99.90
52849;DHT22;38714;53.180;5.812;2023-04-02T16:43:13;7.60;99.90
52849;DHT22;38714;53.180;5.812;2023-04-02T16:51:19;7.60;99.90
52849;DHT22;38714;53.180;5.812;2023-04-02T16:53:56;7.50;99.90
52849;DHT22;38714;53.180;5.812;2023-04-02T16:59:17;7.50;99.90
52849;DHT22;38714;53.180;5.812;2023-04-02T17:07:13;7.40;99.90
52849;DHT22;38714;53.180;5.812;2023-04-02T17:12:19;7.40;99.90
52849;DHT22;38714;53.180;5.812;2023-04-02T17:17:16;7.30;99.90
52849;DHT22;38714;53.180;5.812;2023-04-02T17:19:43;7.20;99.90
52849;DHT22;38714;53.180;5.812;2023-04-02T17:22:16;7.20;99.90
52849;DHT22;38714;53.180;5.812;2023-04-02T17:24:56;7.10;99.90
52849;DHT22;38714;53.180;5.812;2023-04-02T17:27:34;7.10;99.90
52849;DHT22;38714;53.180;5.812;2023-04-02T17:32:46;7.10;99.90
52849;DHT22;38714;53.180;5.812;2023-04-02T17:35:32;7.00;99.90
52849;DHT22;38714;53.180;5.812;2023-04-02T17:48:58;6.80;99.90
52849;DHT22;38714;53.180;5.812;2023-04-02T17:51:37;6.80;99.90
52849;DHT22;38714;53.180;5.812;2023-04-02T17:54:32;6.80;99.90
52849;DHT22;38714;53.180;5.812;2023-04-02T17:57:22;6.80;99.90
52849;DHT22;38714;53.180;5.812;2023-04-02T18:05:42;6.60;99.90
52849;DHT22;38714;53.180;5.812;2023-04-02T18:08:43;6.60;99.90
52849;DHT22;38714;53.180;5.812;2023-04-02T18:11:56;6.60;99.90
52849;DHT22;38714;53.180;5.812;2023-04-02T18:14:57;6.50;99.90
52849;DHT22;38714;53.180;5.812;2023-04-02T18:17:45;6.50;99.90
52849;DHT22;38714;53.180;5.812;2023-04-02T18:25:53;6.40;99.90
52849;DHT22;38714;53.180;5.812;2023-04-02T18:28:26;6.40;99.90
52849;DHT22;38714;53.180;5.812;2023-04-02T18:36:57;6.30;99.90
52849;DHT22;38714;53.180;5.812;2023-04-02T18:42:43;6.30;99.90
52849;DHT22;38714;53.180;5.812;2023-04-02T18:48:21;6.20;99.90
52849;DHT22;38714;53.180;5.812;2023-04-02T18:50:53;6.20;99.90
52849;DHT22;38714;53.180;5.812;2023-04-02T18:53:24;6.10;99.90
52849;DHT22;38714;53.180;5.812;2023-04-02T18:55:56;6.10;99.90
52849;DHT22;38714;53.180;5.812;2023-04-02T18:58:30;6.10;99.90
52849;DHT22;38714;53.180;5.812;2023-04-02T19:00:58;6.10;99.90
52849;DHT22;38714;53.180;5.812;2023-04-02T19:03:30;6.00;99.90
52849;DHT22;38714;53.180;5.812;2023-04-02T19:06:14;6.00;99.90
52849;DHT22;38714;53.180;5.812;2023-04-02T19:09:31;6.00;99.90
52849;DHT22;38714;53.180;5.812;2023-04-02T19:11:55;6.00;99.90
52849;DHT22;38714;53.180;5.812;2023-04-02T19:14:21;6.00;99.90
52849;DHT22;38714;53.180;5.812;2023-04-02T19:19:22;5.90;99.90
52849;DHT22;38714;53.180;5.812;2023-04-02T19:36:01;5.80;99.90
52849;DHT22;38714;53.180;5.812;2023-04-02T19:38:44;5.80;99.90
52849;DHT22;38714;53.180;5.812;2023-04-02T19:41:24;5.80;99.90
52849;DHT22;38714;53.180;5.812;2023-04-02T19:43:52;5.70;99.90
52849;DHT22;38714;53.180;5.812;2023-04-02T19:46:19;5.70;99.90
52849;DHT22;38714;53.180;5.812;2023-04-02T19:51:10;5.60;99.90
52849;DHT22;38714;53.180;5.812;2023-04-02T19:53:36;5.70;99.90
52849;DHT22;38714;53.180;5.812;2023-04-02T19:56:01;5.70;99.90
52849;DHT22;38714;53.180;5.812;2023-04-02T19:58:29;5.60;99.90
52849;DHT22;38714;53.180;5.812;2023-04-02T20:00:55;5.60;99.90
52849;DHT22;38714;53.180;5.812;2023-04-02T20:03:21;5.60;99.90
52849;DHT22;38714;53.180;5.812;2023-04-02T20:05:47;5.50;99.90
52849;DHT22;38714;53.180;5.812;2023-04-02T20:08:13;5.50;99.90
52849;DHT22;38714;53.180;5.812;2023-04-02T20:10:39;5.50;99.90
52849;DHT22;38714;53.180;5.812;2023-04-02T20:13:05;5.50;99.90
52849;DHT22;38714;53.180;5.812;2023-04-02T20:15:30;5.50;99.90
52849;DHT22;38714;53.180;5.812;2023-04-02T20:17:56;5.40;99.90
52849;DHT22;38714;53.180;5.812;2023-04-02T20:20:22;5.50;99.90
52849;DHT22;38714;53.180;5.812;2023-04-02T20:22:47;5.50;99.90
52849;DHT22;38714;53.180;5.812;2023-04-02T20:25:13;5.40;99.90
52849;DHT22;38714;53.180;5.812;2023-04-02T20:27:39;5.40;99.90
52849;DHT22;38714;53.180;5.812;2023-04-02T20:30:06;5.40;99.90
52849;DHT22;38714;53.180;5.812;2023-04-02T20:32:31;5.30;99.90
52849;DHT22;38714;53.180;5.812;2023-04-02T20:34:57;5.30;99.90
52849;DHT22;38714;53.180;5.812;2023-04-02T20:37:25;5.30;99.90
52849;DHT22;38714;53.180;5.812;2023-04-02T20:39:51;5.30;99.90
52849;DHT22;38714;53.180;5.812;2023-04-02T20:42:17;5.30;99.90
52849;DHT22;38714;53.180;5.812;2023-04-02T20:44:42;5.30;99.90
52849;DHT22;38714;53.180;5.812;2023-04-02T20:47:08;5.20;99.90
52849;DHT22;38714;53.180;5.812;2023-04-02T20:49:35;5.20;99.90
52849;DHT22;38714;53.180;5.812;2023-04-02T20:52:00;5.20;99.90
52849;DHT22;38714;53.180;5.812;2023-04-02T20:54:26;5.20;99.90
52849;DHT22;38714;53.180;5.812;2023-04-02T20:56:52;5.10;99.90
52849;DHT22;38714;53.180;5.812;2023-04-02T20:59:17;5.10;99.90
52849;DHT22;38714;53.180;5.812;2023-04-02T21:01:43;5.10;99.90
52849;DHT22;38714;53.180;5.812;2023-04-02T21:04:09;5.10;99.90
52849;DHT22;38714;53.180;5.812;2023-04-02T21:06:37;5.10;99.90
52849;DHT22;38714;53.180;5.812;2023-04-02T21:09:06;5.10;99.90
52849;DHT22;38714;53.180;5.812;2023-04-02T21:11:32;5.10;99.90
52849;DHT22;38714;53.180;5.812;2023-04-02T21:13:58;5.00;99.90
52849;DHT22;38714;53.180;5.812;2023-04-02T21:16:28;5.00;99.90
52849;DHT22;38714;53.180;5.812;2023-04-02T21:18:57;5.00;99.90
52849;DHT22;38714;53.180;5.812;2023-04-02T21:21:23;5.00;99.90
52849;DHT22;38714;53.180;5.812;2023-04-02T21:23:54;5.00;99.90
52849;DHT22;38714;53.180;5.812;2023-04-02T21:26:20;4.90;99.90